Time;durP1;ratioP1;P1;durP2;ratioP2;P2;SDS_P1;SDS_P2;PMS_P1;PMS_P2;Temp;Humidity;BMP_temperature;BMP_pressure;BME280_temperature;BME280_humidity;BME280_pressure;Samples;Min_cycle;Max_cycle;Signal;HPM_P1;HPM_P2
2022/01/12 00:00:18;;;;;;;189.82;87.50;;;;;;;-2.55;100.00;101668.88;5112009;28;20476;-79
2022/01/12 00:03:11;;;;;;;;;;;;;;;-2.48;100.00;101658.16;5082508;28;20348;-79
2022/01/12 00:05:55;;;;;;;208.32;90.68;;;;;;;-2.44;100.00;101664.34;5080820;28;19973;-80
2022/01/12 00:08:40;;;;;;;224.50;93.07;;;;;;;-2.40;100.00;101664.63;5080999;28;20047;-80
2022/01/12 00:11:24;;;;;;;240.93;104.63;;;;;;;-2.41;100.00;101652.56;5080991;28;20113;-79
2022/01/12 00:14:08;;;;;;;194.30;87.80;;;;;;;-2.28;100.00;101660.97;5080816;28;20381;-79
2022/01/12 00:16:58;;;;;;;196.27;89.97;;;;;;;-2.28;100.00;101668.69;5080821;28;20441;-79
2022/01/12 00:19:43;;;;;;;202.95;92.25;;;;;;;-2.27;100.00;101661.06;5095048;28;20121;-79
2022/01/12 00:22:28;;;;;;;210.15;93.70;;;;;;;-2.37;100.00;101658.78;5064061;28;20048;-80
2022/01/12 00:34:13;;;;;;;177.02;78.80;;;;;;;-2.22;100.00;101651.94;5080668;28;20381;-80
2022/01/12 00:36:58;;;;;;;179.77;78.22;;;;;;;-2.10;100.00;101672.28;5080680;28;20141;-79
2022/01/12 00:39:42;;;;;;;185.32;82.38;;;;;;;-2.42;100.00;101668.78;5066649;28;20043;-79
2022/01/12 00:42:28;;;;;;;180.20;80.95;;;;;;;-2.20;100.00;101662.31;5080623;28;20051;-79
2022/01/12 00:45:13;;;;;;;183.40;84.30;;;;;;;-2.18;100.00;101653.91;5080503;28;20067;-80
2022/01/12 00:47:57;;;;;;;191.35;91.18;;;;;;;-2.21;100.00;101642.53;5066455;28;20051;-80
2022/01/12 00:50:42;;;;;;;183.70;81.25;;;;;;;-2.32;100.00;101648.78;5080623;28;20032;-80
2022/01/12 00:53:27;;;;;;;192.68;86.07;;;;;;;-2.50;100.00;101666.56;5080511;28;20113;-80
2022/01/12 00:56:11;;;;;;;184.20;83.57;;;;;;;-2.32;100.00;101665.06;5080380;28;20119;-79
2022/01/12 00:58:55;;;;;;;165.35;78.57;;;;;;;-2.27;100.00;101652.50;5108964;28;20075;-80
2022/01/12 01:01:39;;;;;;;193.70;83.82;;;;;;;-2.28;100.00;101653.28;5097609;28;20055;-80
2022/01/12 01:04:26;;;;;;;185.80;81.22;;;;;;;-2.48;100.00;101659.84;5084201;28;20038;-79
2022/01/12 01:07:11;;;;;;;189.80;85.60;;;;;;;-2.69;100.00;101650.13;5070096;28;20107;-79
2022/01/12 01:10:07;;;;;;;168.18;74.85;;;;;;;-2.29;100.00;101656.66;5098991;28;20424;-79
2022/01/12 01:12:53;;;;;;;163.48;71.32;;;;;;;-2.22;100.00;101666.47;5097875;28;20119;-79
2022/01/12 01:27:35;;;;;;;170.65;72.03;;;;;;;-2.32;100.00;101652.22;5083627;28;20040;-79
2022/01/12 01:30:20;;;;;;;175.00;75.97;;;;;;;-2.24;100.00;101657.78;5083623;28;20044;-79
2022/01/12 01:33:07;;;;;;;175.90;77.32;;;;;;;-2.38;100.00;101657.88;5083479;28;20042;-79
2022/01/12 01:35:56;;;;;;;173.32;78.55;;;;;;;-2.58;100.00;101655.88;5069281;28;20051;-79
2022/01/12 01:38:43;;;;;;;157.35;73.18;;;;;;;-2.22;100.00;101656.19;5069610;28;20040;-79
2022/01/12 01:41:28;;;;;;;155.88;70.75;;;;;;;-2.22;100.00;101653.63;5083563;28;20425;-79
2022/01/12 01:53:21;;;;;;;137.82;65.50;;;;;;;-2.19;100.00;101652.09;5065981;28;20297;-79
2022/01/12 01:56:07;;;;;;;151.13;67.72;;;;;;;-2.20;100.00;101646.91;5097148;28;20056;-80
2022/01/12 01:58:52;;;;;;;145.98;68.65;;;;;;;-2.19;100.00;101643.53;5066225;28;20140;-79
2022/01/12 02:01:38;;;;;;;154.73;71.22;;;;;;;-2.29;100.00;101643.81;5069131;28;20040;-79
2022/01/12 02:04:23;;;;;;;164.23;75.28;;;;;;;-2.26;100.00;101636.28;5068818;28;20037;-79
2022/01/12 02:07:14;;;;;;;156.43;71.25;;;;;;;-2.15;100.00;101666.88;5083666;28;20055;-79
2022/01/12 02:10:05;;;;;;;159.52;72.00;;;;;;;-2.31;100.00;101650.53;5083298;28;20123;-79
2022/01/12 02:12:58;;;;;;;154.25;70.28;;;;;;;-2.16;100.00;101648.81;5082751;28;20044;-79
2022/01/12 02:15:46;;;;;;;158.27;71.68;;;;;;;-2.04;100.00;101662.34;5066241;28;20077;-79
2022/01/12 02:40:39;;;;;;;123.05;55.92;;;;;;;-2.10;100.00;101654.31;5082167;28;20033;-80
2022/01/12 02:55:08;;;;;;;133.82;59.95;;;;;;;-2.25;100.00;101656.88;5081847;28;20561;-80
2022/01/12 02:57:52;;;;;;;118.45;55.03;;;;;;;-2.21;100.00;101664.00;5081984;28;20036;-79
2022/01/12 03:01:02;;;;;;;119.03;52.67;;;;;;;-2.25;100.00;101635.47;5067816;28;20036;-80
2022/01/12 03:03:50;;;;;;;112.47;53.13;;;;;;;-2.17;100.00;101641.94;5081708;28;20043;-80
2022/01/12 03:06:39;;;;;;;114.30;52.63;;;;;;;-2.22;100.00;101659.63;5067560;28;20573;-79
2022/01/12 03:09:23;;;;;;;118.20;53.58;;;;;;;-2.18;100.00;101640.16;5067533;28;20075;-79
2022/01/12 03:12:07;;;;;;;106.25;49.42;;;;;;;-2.13;100.00;101633.59;5095853;28;20065;-79
2022/01/12 03:14:52;;;;;;;121.30;53.83;;;;;;;-2.29;100.00;101623.28;5081522;28;20071;-79
2022/01/12 03:17:37;;;;;;;114.65;50.92;;;;;;;-2.16;100.00;101649.72;5067716;28;20044;-79
2022/01/12 03:20:22;;;;;;;107.55;50.97;;;;;;;-2.18;100.00;101647.84;5067585;28;20036;-79
2022/01/12 03:23:07;;;;;;;111.22;51.13;;;;;;;-2.15;100.00;101637.75;5096410;28;20040;-79
2022/01/12 03:25:53;;;;;;;116.57;53.88;;;;;;;-2.10;100.00;101646.59;5080990;28;20047;-79
2022/01/12 03:28:40;;;;;;;113.00;50.83;;;;;;;-2.14;100.00;101630.16;5095589;28;20044;-79
2022/01/12 03:31:28;;;;;;;111.10;50.90;;;;;;;-2.12;100.00;101641.38;5081305;28;20118;-79
2022/01/12 03:34:26;;;;;;;112.18;52.97;;;;;;;-2.17;100.00;101645.38;5081151;28;20044;-79
2022/01/12 03:37:41;;;;;;;113.43;49.55;;;;;;;-2.21;100.00;101643.44;5081252;28;20047;-80
2022/01/12 03:40:27;;;;;;;100.10;47.85;;;;;;;-2.14;100.00;101649.81;5081208;28;20036;-80
2022/01/12 03:43:11;;;;;;;118.07;52.55;;;;;;;-2.27;100.00;101643.09;5064449;28;20052;-80
2022/01/12 03:45:56;;;;;;;111.95;48.50;;;;;;;-2.17;100.00;101647.06;5081194;28;20075;-80
2022/01/12 03:48:41;;;;;;;110.25;49.85;;;;;;;-2.33;100.00;101637.63;5081195;28;20040;-80
2022/01/12 03:51:26;;;;;;;103.82;47.33;;;;;;;-2.24;100.00;101645.84;5081089;28;20040;-79
2022/01/12 03:54:11;;;;;;;99.97;45.70;;;;;;;-2.21;100.00;101647.69;5081014;28;20032;-79
2022/01/12 03:56:58;;;;;;;110.70;47.75;;;;;;;-2.30;100.00;101648.06;5081002;28;20490;-79
2022/01/12 03:59:44;;;;;;;94.28;45.13;;;;;;;-2.31;100.00;101633.44;5081012;28;20040;-79
2022/01/12 04:02:28;;;;;;;101.30;47.40;;;;;;;-2.30;100.00;101642.06;5066922;28;20429;-80
2022/01/12 04:08:19;;;;;;;107.03;45.63;;;;;;;-2.29;100.00;101641.25;5080932;28;20044;-80
2022/01/12 04:11:04;;;;;;;100.68;43.85;;;;;;;-2.24;100.00;101648.41;5066761;28;20040;-79
2022/01/12 04:13:52;;;;;;;91.53;43.35;;;;;;;-2.17;100.00;101637.69;5067159;28;20036;-80
2022/01/12 04:16:37;;;;;;;89.05;41.92;;;;;;;-2.24;100.00;101640.72;5080963;28;20085;-80
2022/01/12 04:19:25;;;;;;;101.57;44.30;;;;;;;-2.28;100.00;101638.75;5066893;28;20069;-80
2022/01/12 04:23:16;;;;;;;102.45;42.70;;;;;;;-2.27;100.00;101637.97;5080763;28;20539;-79
2022/01/12 04:25:25;;;;;;;98.68;41.40;;;;;;;-2.38;100.00;101639.03;5080935;28;20093;-79
2022/01/12 04:28:09;;;;;;;96.45;40.95;;;;;;;-2.53;100.00;101630.50;5066662;28;20040;-79
2022/01/12 04:30:56;;;;;;;108.57;46.88;;;;;;;-2.62;100.00;101625.72;5080753;28;20459;-80
2022/01/12 04:33:41;;;;;;;99.82;46.08;;;;;;;-2.51;100.00;101621.19;5112000;28;20059;-80
2022/01/12 04:36:26;;;;;;;98.22;41.55;;;;;;;-2.34;100.00;101635.84;5099084;28;20036;-80
2022/01/12 04:39:10;;;;;;;101.25;42.00;;;;;;;-2.33;100.00;101636.75;5130580;27;20401;-80
2022/01/12 04:41:55;;;;;;;99.32;42.78;;;;;;;-2.44;100.00;101625.84;5098624;28;20036;-77
2022/01/12 04:44:44;;;;;;;96.82;42.40;;;;;;;-2.32;100.00;101630.81;5084556;28;20051;-77
2022/01/12 04:47:57;;;;;;;109.15;46.42;;;;;;;-2.48;100.00;101649.59;5070522;28;20041;-78
2022/01/12 04:50:37;;;;;;;105.20;46.72;;;;;;;-2.48;100.00;101657.28;5084317;28;20353;-78
2022/01/12 04:53:23;;;;;;;101.60;44.55;;;;;;;-2.37;100.00;101635.69;5067330;28;20056;-78
2022/01/12 04:56:08;;;;;;;104.03;45.03;;;;;;;-2.27;100.00;101649.94;5112921;28;20044;-78
2022/01/12 04:58:52;;;;;;;116.15;49.58;;;;;;;-2.47;100.00;101657.38;5070044;28;20040;-78
2022/01/12 05:01:48;;;;;;;117.60;47.90;;;;;;;-2.40;100.00;101648.34;5070079;28;20070;-78
2022/01/12 05:07:45;;;;;;;117.18;53.00;;;;;;;-2.27;100.00;101642.22;5084066;28;20063;-78
2022/01/12 05:13:14;;;;;;;144.27;61.65;;;;;;;-2.33;100.00;101632.50;5083835;28;20060;-78
2022/01/12 05:16:00;;;;;;;131.73;58.90;;;;;;;-2.37;100.00;101646.84;5083877;28;20429;-78
2022/01/12 05:18:47;;;;;;;109.80;47.30;;;;;;;-2.44;100.00;101655.00;5083849;28;20036;-78
2022/01/12 05:21:32;;;;;;;123.00;50.00;;;;;;;-2.40;100.00;101643.22;5069842;28;20110;-78
2022/01/12 05:24:17;;;;;;;120.85;50.08;;;;;;;-2.42;100.00;101647.38;5083669;28;20044;-78
2022/01/12 05:27:02;;;;;;;121.75;55.13;;;;;;;-2.50;100.00;101635.78;5083564;28;20429;-78
2022/01/12 05:29:46;;;;;;;101.97;46.83;;;;;;;-2.40;100.00;101644.09;5083538;28;20036;-77
2022/01/12 05:32:31;;;;;;;111.50;53.38;;;;;;;-2.32;100.00;101649.66;5069774;28;20051;-78
2022/01/12 05:35:20;;;;;;;105.78;48.58;;;;;;;-2.39;100.00;101640.72;5070016;28;20129;-78
2022/01/12 05:38:08;;;;;;;114.05;47.88;;;;;;;-2.39;100.00;101637.28;5083436;28;20394;-78
2022/01/12 05:41:05;;;;;;;98.55;44.88;;;;;;;-2.36;100.00;101647.72;5098347;28;20044;-78
2022/01/12 05:43:50;;;;;;;172.57;58.20;;;;;;;-2.46;100.00;101650.56;5083265;28;20043;-78
2022/01/12 05:46:37;;;;;;;169.13;59.35;;;;;;;-2.54;100.00;101638.97;5069041;28;20036;-78
2022/01/12 05:49:34;;;;;;;125.85;52.42;;;;;;;-2.53;100.00;101654.47;5069768;28;20334;-78
2022/01/12 05:52:19;;;;;;;120.32;48.63;;;;;;;-2.46;100.00;101646.31;5111796;28;20131;-78
2022/01/12 05:55:05;;;;;;;156.45;55.08;;;;;;;-2.50;100.00;101648.59;5069039;28;20069;-78
2022/01/12 05:57:50;;;;;;;147.27;53.20;;;;;;;-2.51;100.00;101665.69;5083097;28;20048;-78
2022/01/12 06:00:36;;;;;;;156.90;59.72;;;;;;;-2.54;100.00;101670.66;5069115;28;20048;-78
2022/01/12 06:03:20;;;;;;;118.97;50.17;;;;;;;-2.44;100.00;101679.75;5097984;28;20416;-77
2022/01/12 06:06:05;;;;;;;112.25;47.85;;;;;;;-2.45;100.00;101684.00;5082802;28;20044;-78
2022/01/12 06:08:50;;;;;;;132.27;51.45;;;;;;;-2.43;100.00;101682.44;5082912;28;20040;-78
2022/01/12 06:11:36;;;;;;;139.68;56.45;;;;;;;-2.41;100.00;101680.81;5097562;28;20067;-78
2022/01/12 06:14:22;;;;;;;121.53;50.20;;;;;;;-2.55;100.00;101691.97;5082749;28;20066;-78
2022/01/12 06:17:08;;;;;;;115.60;47.63;;;;;;;-2.42;100.00;101686.75;5082774;28;20044;-78
2022/01/12 06:19:53;;;;;;;103.13;46.47;;;;;;;-2.54;100.00;101680.91;5082597;28;20047;-78
2022/01/12 06:22:54;;;;;;;105.80;46.85;;;;;;;-2.48;100.00;101688.09;5065833;28;20063;-78
2022/01/12 06:25:39;;;;;;;100.57;45.33;;;;;;;-2.43;100.00;101699.50;5097496;28;20036;-78
2022/01/12 06:28:54;;;;;;;99.85;44.53;;;;;;;-2.45;100.00;101685.69;5097618;28;20040;-78
2022/01/12 06:31:28;;;;;;;99.10;43.22;;;;;;;-2.45;100.00;101696.84;5096597;28;20055;-78
2022/01/12 06:34:12;;;;;;;105.55;46.20;;;;;;;-2.41;100.00;101691.06;5082282;28;20055;-78
2022/01/12 06:36:57;;;;;;;103.50;45.47;;;;;;;-2.44;100.00;101683.22;5082272;28;20123;-78
2022/01/12 06:39:41;;;;;;;109.57;47.45;;;;;;;-2.37;100.00;101705.00;5068183;28;20044;-78
2022/01/12 06:42:26;;;;;;;97.32;44.65;;;;;;;-2.37;100.00;101705.00;5068027;28;20044;-78
2022/01/12 06:45:11;;;;;;;119.70;50.03;;;;;;;-2.37;100.00;101698.19;5067617;28;20097;-78
2022/01/12 06:47:59;;;;;;;115.60;51.65;;;;;;;-2.38;100.00;101695.50;5093174;28;20049;-77
2022/01/12 06:50:44;;;;;;;121.72;53.65;;;;;;;-2.45;100.00;101693.41;5085959;28;20219;-77
2022/01/12 06:53:28;;;;;;;122.72;52.75;;;;;;;-2.50;100.00;101695.72;5100089;28;20120;-77
2022/01/12 06:56:15;;;;;;;118.32;51.78;;;;;;;-2.42;100.00;101707.28;5099899;28;20108;-77
2022/01/12 06:59:06;;;;;;;117.15;50.97;;;;;;;-2.59;100.00;101680.66;5099323;28;20401;-77
2022/01/12 07:01:52;;;;;;;116.05;48.75;;;;;;;-2.43;100.00;101702.06;5100497;28;20050;-77
2022/01/12 07:04:44;;;;;;;129.73;50.88;;;;;;;-2.39;100.00;101704.91;5087267;28;20337;-77
2022/01/12 07:07:29;;;;;;;122.07;55.17;;;;;;;-2.36;100.00;101706.75;5100623;28;20043;-77
2022/01/12 07:10:18;;;;;;;135.82;56.78;;;;;;;-2.44;100.00;101716.59;5083131;28;20055;-77
2022/01/12 07:13:05;;;;;;;131.43;55.40;;;;;;;-2.35;100.00;101721.34;5069077;28;20456;-77
2022/01/12 07:15:49;;;;;;;137.90;57.95;;;;;;;-2.32;100.00;101718.97;5099917;28;20118;-77
2022/01/12 07:18:37;;;;;;;166.43;66.13;;;;;;;-2.35;100.00;101717.09;5086334;28;20047;-77
2022/01/12 07:21:21;;;;;;;162.82;64.97;;;;;;;-2.40;100.00;101715.09;5086190;28;20091;-77
2022/01/12 07:24:06;;;;;;;142.90;58.83;;;;;;;-2.37;100.00;101723.84;5087489;28;20398;-77
2022/01/12 07:26:50;;;;;;;151.95;63.70;;;;;;;-2.33;100.00;101732.59;5101855;28;20035;-77
2022/01/12 07:29:35;;;;;;;154.80;64.25;;;;;;;-2.30;100.00;101722.50;5101875;28;20051;-78
2022/01/12 07:32:19;;;;;;;154.73;63.97;;;;;;;-2.33;100.00;101716.31;5116058;28;20040;-77
2022/01/12 07:35:04;;;;;;;154.75;67.00;;;;;;;-2.29;100.00;101726.84;5087274;28;20398;-77
2022/01/12 07:37:49;;;;;;;148.05;63.38;;;;;;;-2.37;100.00;101718.72;5101881;28;20043;-77
2022/01/12 07:40:35;;;;;;;147.98;59.53;;;;;;;-2.48;100.00;101701.78;5098252;28;20063;-77
2022/01/12 07:43:19;;;;;;;142.45;58.72;;;;;;;-2.36;100.00;101706.75;5087098;28;20043;-78
2022/01/12 07:46:04;;;;;;;141.63;62.85;;;;;;;-2.53;100.00;101713.50;5087040;28;20044;-77
2022/01/12 07:48:48;;;;;;;131.27;58.53;;;;;;;-2.43;100.00;101720.03;5114965;28;20480;-77
2022/01/12 07:51:32;;;;;;;132.88;55.10;;;;;;;-2.35;100.00;101736.75;5114445;28;20104;-77
2022/01/12 07:54:16;;;;;;;136.15;58.03;;;;;;;-2.37;100.00;101740.94;5085087;28;20060;-77
2022/01/12 07:57:01;;;;;;;138.82;59.85;;;;;;;-2.35;100.00;101734.19;5114478;28;20051;-77
2022/01/12 07:59:45;;;;;;;139.35;60.42;;;;;;;-2.26;100.00;101731.28;5114501;28;20047;-77
2022/01/12 08:02:29;;;;;;;142.02;62.47;;;;;;;-2.31;100.00;101735.25;5085106;28;20043;-77
2022/01/12 08:05:13;;;;;;;142.45;61.42;;;;;;;-2.31;100.00;101735.25;5114343;28;20063;-77
2022/01/12 08:07:59;;;;;;;133.45;59.78;;;;;;;-2.31;100.00;101735.25;5085063;28;20097;-77
2022/01/12 08:10:43;;;;;;;131.30;59.30;;;;;;;-2.31;100.00;101732.69;5100064;28;20455;-77
2022/01/12 08:13:27;;;;;;;140.30;58.00;;;;;;;-2.27;100.00;101735.53;5103373;28;20039;-77
2022/01/12 08:16:12;;;;;;;138.23;57.67;;;;;;;-2.25;100.00;101738.16;5118940;28;20044;-77
2022/01/12 08:18:57;;;;;;;127.65;55.67;;;;;;;-2.26;100.00;101736.41;5120100;28;20040;-77
2022/01/12 08:21:41;;;;;;;137.40;60.92;;;;;;;-2.27;100.00;101732.06;5105731;28;20036;-77
2022/01/12 08:24:25;;;;;;;144.02;63.22;;;;;;;-2.16;100.00;101738.69;5091357;28;20066;-77
2022/01/12 08:27:10;;;;;;;133.05;60.90;;;;;;;-2.05;100.00;101741.88;5105001;28;20035;-77
2022/01/12 08:30:00;;;;;;;130.45;58.38;;;;;;;-2.02;100.00;101713.78;5105066;28;20104;-77
2022/01/12 08:32:46;;;;;;;133.77;58.60;;;;;;;-2.12;100.00;101703.00;5104860;28;20134;-77
2022/01/12 08:35:31;;;;;;;137.55;61.13;;;;;;;-2.01;100.00;101719.03;5120278;28;20044;-77
2022/01/12 08:38:15;;;;;;;137.02;60.92;;;;;;;-2.01;100.00;101708.75;5120533;28;20035;-77
2022/01/12 08:41:00;;;;;;;137.85;61.33;;;;;;;-2.07;100.00;101704.97;5105227;28;20035;-77
2022/01/12 08:43:45;;;;;;;149.18;66.53;;;;;;;-2.02;100.00;101714.66;5104714;28;20047;-77
2022/01/12 08:46:29;;;;;;;136.52;64.72;;;;;;;-2.18;100.00;101714.59;5120190;28;20044;-77
2022/01/12 08:49:14;;;;;;;152.38;63.90;;;;;;;-2.11;100.00;101716.75;5104543;28;20211;-77
2022/01/12 08:51:58;;;;;;;153.52;68.32;;;;;;;-2.25;100.00;101721.06;5119528;28;20044;-78
2022/01/12 08:54:42;;;;;;;164.20;68.90;;;;;;;-2.20;100.00;101749.59;5118773;28;20122;-77
2022/01/12 08:57:29;;;;;;;138.32;61.40;;;;;;;-2.16;100.00;101737.00;5104402;28;20450;-77
2022/01/12 09:00:15;;;;;;;137.90;59.88;;;;;;;-2.06;100.00;101738.41;5090067;28;20040;-77
2022/01/12 09:03:01;;;;;;;136.52;62.92;;;;;;;-1.98;100.00;101734.63;5104334;28;20344;-77
2022/01/12 09:05:46;;;;;;;135.32;60.88;;;;;;;-1.86;100.00;101728.38;5104842;28;20420;-77
2022/01/12 09:08:30;;;;;;;141.98;60.60;;;;;;;-1.82;100.00;101723.50;5104816;28;20048;-77
2022/01/12 09:11:18;;;;;;;135.93;57.00;;;;;;;-1.80;100.00;101723.56;5090408;28;20355;-77
2022/01/12 09:14:03;;;;;;;139.82;61.53;;;;;;;-1.82;100.00;101707.19;5104277;28;20035;-77
2022/01/12 09:16:58;;;;;;;135.60;59.28;;;;;;;-1.67;100.00;101698.63;5119785;28;20138;-77
2022/01/12 09:19:42;;;;;;;196.05;72.68;;;;;;;-1.66;100.00;101699.50;5104067;28;20035;-78
2022/01/12 09:22:26;;;;;;;140.73;60.35;;;;;;;-1.54;100.00;101687.34;5118568;28;20040;-77
2022/01/12 09:25:11;;;;;;;125.50;56.55;;;;;;;-1.42;100.00;101682.84;5103898;28;20039;-77
2022/01/12 09:27:57;;;;;;;126.93;55.28;;;;;;;-1.22;100.00;101701.91;5089845;28;20092;-77
2022/01/12 09:30:42;;;;;;;125.25;55.33;;;;;;;-1.12;100.00;101700.69;5104419;28;20104;-77
2022/01/12 09:33:26;;;;;;;125.75;56.28;;;;;;;-0.99;100.00;101702.22;5104353;28;20047;-77
2022/01/12 09:36:11;;;;;;;128.80;60.78;;;;;;;-0.91;100.00;101703.50;5086894;28;20051;-77
2022/01/12 09:38:55;;;;;;;151.30;76.85;;;;;;;-1.09;100.00;101688.00;5103642;28;20051;-77
2022/01/12 09:41:39;;;;;;;135.98;67.57;;;;;;;-1.16;100.00;101691.06;5103984;28;20163;-77
2022/01/12 09:44:32;;;;;;;115.97;55.20;;;;;;;-1.01;100.00;101702.16;5104108;28;20039;-77
2022/01/12 09:47:18;;;;;;;117.45;56.55;;;;;;;-0.96;100.00;101695.53;5118616;28;20092;-78
2022/01/12 09:50:03;;;;;;;141.38;65.88;;;;;;;-0.87;100.00;101699.41;5118613;28;20036;-77
2022/01/12 09:52:48;;;;;;;113.70;52.90;;;;;;;-0.97;100.00;101693.78;5088721;28;20055;-77
2022/01/12 09:55:33;;;;;;;112.45;52.38;;;;;;;-1.26;100.00;101657.94;5116741;28;20130;-76
2022/01/12 09:58:17;;;;;;;136.65;60.30;;;;;;;-1.02;100.00;101694.34;5116811;28;20027;-77
2022/01/12 10:01:03;;;;;;;164.55;75.05;;;;;;;-1.15;100.00;101687.66;5116551;28;20420;-77
2022/01/12 10:03:47;;;;;;;188.07;85.07;;;;;;;-1.27;100.00;101684.44;5087103;28;20036;-77
2022/01/12 10:06:39;;;;;;;127.10;57.60;;;;;;;-1.13;100.00;101700.63;5101095;28;20043;-77
2022/01/12 10:09:44;;;;;;;107.00;46.75;;;;;;;-1.05;100.00;101684.75;5101157;28;20035;-77
2022/01/12 10:12:28;;;;;;;99.53;46.10;;;;;;;-1.02;100.00;101677.22;5101130;28;20044;-77
2022/01/12 10:15:16;;;;;;;139.00;59.22;;;;;;;-0.90;100.00;101689.81;5087269;28;20089;-77
2022/01/12 10:18:02;;;;;;;132.15;57.38;;;;;;;-1.09;100.00;101699.97;5116000;28;20047;-77
2022/01/12 10:20:47;;;;;;;110.75;53.17;;;;;;;-1.16;100.00;101682.47;5100892;28;20031;-77
2022/01/12 10:23:38;;;;;;;111.60;50.50;;;;;;;-1.21;100.00;101692.50;5116039;28;20036;-77
2022/01/12 10:26:29;;;;;;;101.70;44.03;;;;;;;-1.18;100.00;101695.22;5118097;28;20051;-77
2022/01/12 10:29:17;;;;;;;116.35;50.22;;;;;;;-1.47;100.00;101673.13;5117882;28;20393;-77
2022/01/12 10:32:04;;;;;;;126.95;52.17;;;;;;;-1.25;100.00;101690.56;5102655;28;20108;-77
2022/01/12 10:34:50;;;;;;;106.53;47.15;;;;;;;-1.21;100.00;101683.09;5087274;28;20036;-77
2022/01/12 10:37:35;;;;;;;108.90;50.53;;;;;;;-1.22;100.00;101670.16;5102860;28;20057;-77
2022/01/12 10:40:19;;;;;;;125.47;52.25;;;;;;;-1.33;100.00;101681.56;5102706;28;20040;-77
2022/01/12 10:43:03;;;;;;;100.55;45.35;;;;;;;-1.34;100.00;101690.06;5102621;28;20036;-77
2022/01/12 10:45:48;;;;;;;117.97;55.78;;;;;;;-1.44;100.00;101693.84;5102557;28;20119;-77
2022/01/12 10:48:39;;;;;;;120.00;55.95;;;;;;;-1.46;100.00;101691.22;5102842;28;20036;-77
2022/01/12 10:51:29;;;;;;;104.05;49.55;;;;;;;-1.21;100.00;101685.66;5118197;28;20110;-77
2022/01/12 10:54:14;;;;;;;106.72;50.10;;;;;;;-0.93;100.00;101676.81;5102210;28;20043;-77
2022/01/12 10:57:15;;;;;;;119.68;52.33;;;;;;;-0.77;100.00;101678.47;5102101;28;20043;-77
2022/01/12 11:00:06;;;;;;;95.57;46.15;;;;;;;-0.60;100.00;101669.00;5102127;28;20046;-78
2022/01/12 11:02:55;;;;;;;110.78;50.70;;;;;;;-0.53;100.00;101663.34;5102356;28;20035;-78
2022/01/12 11:05:39;;;;;;;142.13;62.00;;;;;;;-0.28;100.00;101663.75;5087575;28;20035;-79
2022/01/12 11:08:25;;;;;;;157.82;67.90;;;;;;;-0.22;100.00;101649.41;5117531;28;20048;-79
2022/01/12 11:11:09;;;;;;;103.88;49.25;;;;;;;0.02;100.00;101654.81;5101973;28;20044;-80
2022/01/12 11:13:55;;;;;;;92.70;45.78;;;;;;;0.27;100.00;101638.81;5117167;28;20063;-80
2022/01/12 11:16:40;;;;;;;94.07;42.17;;;;;;;0.43;100.00;101637.00;5116917;28;20434;-80
2022/01/12 11:19:25;;;;;;;94.30;42.50;;;;;;;0.45;100.00;101627.59;5102194;28;20063;-80
2022/01/12 11:22:28;;;;;;;90.93;38.25;;;;;;;0.47;100.00;101635.44;5101674;28;20036;-77
2022/01/12 11:25:24;;;;;;;92.43;43.03;;;;;;;0.44;100.00;101630.13;5101557;28;20040;-79
2022/01/12 11:28:18;;;;;;;74.30;34.17;;;;;;;0.58;100.00;101654.81;5116617;28;20051;-80
2022/01/12 11:31:04;;;;;;;84.30;40.40;;;;;;;0.59;100.00;101654.03;5097376;28;20047;-80
2022/01/12 11:33:49;;;;;;;105.82;45.80;;;;;;;0.76;100.00;101641.88;5099728;28;20321;-79
2022/01/12 11:36:39;;;;;;;85.45;40.42;;;;;;;0.99;100.00;101652.31;5099812;28;20044;-79
2022/01/12 11:39:31;;;;;;;77.50;38.90;;;;;;;0.85;100.00;101644.00;5099767;28;20079;-79
2022/01/12 11:42:16;;;;;;;73.07;34.50;;;;;;;0.84;100.00;101630.19;5114745;28;20040;-79
2022/01/12 11:45:00;;;;;;;71.05;32.78;;;;;;;0.89;100.00;101628.69;5114498;28;20040;-79
2022/01/12 11:47:45;;;;;;;74.15;34.83;;;;;;;0.81;100.00;101630.03;5114507;28;20047;-80
2022/01/12 11:50:29;;;;;;;77.13;37.70;;;;;;;1.02;100.00;101634.38;5114576;28;20046;-80
2022/01/12 11:53:19;;;;;;;99.72;46.35;;;;;;;1.08;100.00;101609.72;5114344;28;20056;-79
2022/01/12 11:56:18;;;;;;;85.97;42.05;;;;;;;1.13;100.00;101592.69;5115112;28;20383;-79
2022/01/12 11:59:11;;;;;;;87.78;42.55;;;;;;;1.06;100.00;101601.00;5116856;28;20040;-80
2022/01/12 12:02:14;;;;;;;67.18;36.15;;;;;;;0.96;100.00;101603.16;5101824;28;20424;-80
2022/01/12 12:05:01;;;;;;;68.53;34.72;;;;;;;0.84;100.00;101585.44;5101301;28;20035;-80
2022/01/12 12:08:02;;;;;;;75.35;36.20;;;;;;;0.76;100.00;101585.13;5116706;28;20043;-80
2022/01/12 12:10:46;;;;;;;65.05;33.38;;;;;;;0.73;100.00;101582.41;5101282;28;20047;-80
2022/01/12 12:13:30;;;;;;;65.68;31.77;;;;;;;0.56;100.00;101584.28;5116399;28;20047;-80
2022/01/12 12:16:16;;;;;;;67.25;33.45;;;;;;;0.65;100.00;101583.75;5101573;28;20063;-79
2022/01/12 12:19:03;;;;;;;68.45;35.42;;;;;;;0.64;100.00;101585.47;5100959;28;20065;-80
2022/01/12 12:21:48;;;;;;;64.50;30.35;;;;;;;0.52;100.00;101578.91;5101447;28;20040;-81
2022/01/12 12:24:33;;;;;;;70.47;33.55;;;;;;;0.40;100.00;101574.97;5100924;28;20047;-80
2022/01/12 12:27:20;;;;;;;66.30;31.63;;;;;;;0.39;100.00;101583.53;5083773;28;20052;-79
2022/01/12 12:30:12;;;;;;;70.93;34.40;;;;;;;0.27;100.00;101564.06;5100871;28;20051;-81
2022/01/12 12:33:06;;;;;;;63.50;33.15;;;;;;;0.30;100.00;101559.91;5100722;28;20046;-80
2022/01/12 12:35:51;;;;;;;72.55;35.30;;;;;;;0.40;100.00;101571.53;5116118;28;20428;-81
2022/01/12 12:38:35;;;;;;;71.95;32.95;;;;;;;0.39;100.00;101560.34;5087020;28;20055;-80
2022/01/12 12:41:19;;;;;;;63.20;32.38;;;;;;;0.31;100.00;101564.25;5116228;28;20043;-80
2022/01/12 12:44:05;;;;;;;66.15;30.45;;;;;;;0.39;100.00;101567.16;5087100;28;20052;-80
2022/01/12 12:46:51;;;;;;;66.22;28.73;;;;;;;0.45;100.00;101564.84;5086700;28;20100;-79
2022/01/12 12:49:56;;;;;;;54.83;28.23;;;;;;;0.41;100.00;101573.28;5086755;28;20043;-80
2022/01/12 12:52:41;;;;;;;79.80;40.30;;;;;;;0.41;100.00;101586.16;5083688;28;20066;-80
2022/01/12 12:55:33;;;;;;;56.03;28.95;;;;;;;0.39;100.00;101565.50;5083619;28;20105;-79
2022/01/12 12:58:18;;;;;;;54.95;27.15;;;;;;;0.50;100.00;101581.41;5099343;28;20341;-80
2022/01/12 13:01:16;;;;;;;54.53;25.52;;;;;;;0.65;100.00;101587.25;5119506;28;20092;-79
2022/01/12 13:04:02;;;;;;;57.45;25.98;;;;;;;0.49;100.00;101582.25;5090203;28;20043;-80
2022/01/12 13:06:47;;;;;;;51.83;25.75;;;;;;;0.57;100.00;101598.03;5119316;28;20052;-80
2022/01/12 13:09:31;;;;;;;56.33;27.95;;;;;;;0.61;100.00;101587.03;5104433;28;20040;-80
2022/01/12 13:12:15;;;;;;;60.00;29.23;;;;;;;0.64;100.00;101598.38;5104067;28;20043;-80
2022/01/12 13:15:00;;;;;;;55.28;27.48;;;;;;;0.56;100.00;101591.13;5118511;28;20036;-80
2022/01/12 13:17:44;;;;;;;63.33;31.95;;;;;;;0.60;100.00;101603.34;5119755;28;20390;-80
2022/01/12 13:23:41;;;;;;;70.18;33.28;;;;;;;0.59;100.00;101597.31;5101265;28;20141;-80
2022/01/12 13:26:31;;;;;;;66.70;31.25;;;;;;;0.53;100.00;101584.13;5103975;28;20435;-80
2022/01/12 13:29:16;;;;;;;67.28;32.28;;;;;;;0.56;100.00;101578.25;5119282;28;20040;-80
2022/01/12 13:32:10;;;;;;;60.78;30.60;;;;;;;0.67;100.00;101571.84;5103827;28;20047;-79
2022/01/12 13:35:01;;;;;;;60.03;31.35;;;;;;;0.58;100.00;101572.31;5103630;28;20040;-79
2022/01/12 13:37:54;;;;;;;60.40;30.98;;;;;;;0.41;100.00;101545.78;5103886;28;20043;-79
2022/01/12 13:40:41;;;;;;;51.83;25.35;;;;;;;0.59;100.00;101565.47;5089096;28;20050;-79